Time;durP1;ratioP1;P1;durP2;ratioP2;P2;SDS_P1;SDS_P2;PMS_P1;PMS_P2;Temp;Humidity;BMP_temperature;BMP_pressure;BME280_temperature;BME280_humidity;BME280_pressure;Samples;Min_cycle;Max_cycle;Signal;HPM_P1;HPM_P2
2023/12/07 00:01:46;;;;;;;11.70;9.50;;;;;;;;;;85603;211;3027196;-36
2023/12/07 00:04:29;;;;;;;12.00;9.10;;;;;;;;;;85485;211;3030374;-35
2023/12/07 00:07:08;;;;;;;12.70;9.90;;;;;;;;;;85548;211;3031448;-37
2023/12/07 00:09:54;;;;;;;12.60;9.40;;;;;;;;;;85474;212;3028711;-37
2023/12/07 00:12:35;;;;;;;11.80;9.50;;;;;;;;;;85522;212;3027109;-36
2023/12/07 00:15:18;;;;;;;11.70;9.30;;;;;;;;;;85520;212;3030722;-36
2023/12/07 00:18:00;;;;;;;11.50;9.20;;;;;;;;;;85542;212;3031197;-36
2023/12/07 00:20:40;;;;;;;12.00;9.80;;;;;;;;;;85589;211;3028178;-36
2023/12/07 00:23:20;;;;;;;12.00;9.30;;;;;;;;;;85629;211;3027091;-36
2023/12/07 00:26:01;;;;;;;12.50;9.50;;;;;;;;;;85532;211;3030815;-36
2023/12/07 00:28:50;;;;;;;12.70;9.50;;;;;;;;;;85613;211;3031820;-36
2023/12/07 00:31:30;;;;;;;12.20;9.10;;;;;;;;;;85593;211;3027843;-36
2023/12/07 00:34:10;;;;;;;12.00;9.60;;;;;;;;;;85568;211;3027780;-36
2023/12/07 00:36:57;;;;;;;12.50;9.50;;;;;;;;;;85494;211;3030287;-35
2023/12/07 00:39:39;;;;;;;11.40;9.00;;;;;;;;;;85566;211;3031078;-35
2023/12/07 00:42:17;;;;;;;11.80;9.20;;;;;;;;;;85540;211;3028233;-35
2023/12/07 00:44:59;;;;;;;11.40;9.30;;;;;;;;;;85529;211;3028081;-35
2023/12/07 00:47:42;;;;;;;11.60;9.00;;;;;;;;;;85553;211;3031363;-34
2023/12/07 00:50:24;;;;;;;11.30;9.40;;;;;;;;;;85571;211;3031819;-34
2023/12/07 00:53:08;;;;;;;12.00;9.30;;;;;;;;;;85536;211;3028300;-34
2023/12/07 00:55:51;;;;;;;12.20;9.00;;;;;;;;;;85558;211;3027894;-36
2023/12/07 00:58:34;;;;;;;11.80;9.00;;;;;;;;;;85595;211;3031767;-36
2023/12/07 01:01:14;;;;;;;10.90;8.80;;;;;;;;;;85627;211;3030936;-36
2023/12/07 01:03:57;;;;;;;10.90;8.90;;;;;;;;;;85642;211;3027699;-36
2023/12/07 01:06:44;;;;;;;11.60;9.20;;;;;;;;;;85577;211;3027857;-35
2023/12/07 01:09:23;;;;;;;11.70;9.70;;;;;;;;;;85274;212;3030733;-36
2023/12/07 01:12:03;;;;;;;11.20;9.20;;;;;;;;;;85447;212;3031383;-36
2023/12/07 01:14:44;;;;;;;11.60;8.60;;;;;;;;;;85454;212;3027892;-35
2023/12/07 01:17:23;;;;;;;11.30;8.90;;;;;;;;;;85434;212;3029596;-35
2023/12/07 01:20:04;;;;;;;11.40;8.90;;;;;;;;;;85542;211;3030279;-35
2023/12/07 01:22:47;;;;;;;11.20;8.90;;;;;;;;;;85548;211;3031115;-35
2023/12/07 01:25:36;;;;;;;11.40;8.90;;;;;;;;;;85588;211;3028505;-35
2023/12/07 01:28:19;;;;;;;10.80;8.70;;;;;;;;;;85532;211;3033174;-35
2023/12/07 01:30:58;;;;;;;11.40;8.90;;;;;;;;;;85570;211;3030456;-35
2023/12/07 01:33:45;;;;;;;10.10;8.40;;;;;;;;;;85626;211;3031638;-35
2023/12/07 01:36:27;;;;;;;11.00;8.80;;;;;;;;;;85556;211;3027816;-35
2023/12/07 01:39:12;;;;;;;11.50;8.90;;;;;;;;;;85573;211;3027120;-35
2023/12/07 01:41:56;;;;;;;11.00;8.60;;;;;;;;;;85573;211;3030716;-35
2023/12/07 01:44:37;;;;;;;11.80;9.30;;;;;;;;;;85576;211;3031458;-35
2023/12/07 01:47:15;;;;;;;10.90;8.60;;;;;;;;;;85528;211;3028531;-35
2023/12/07 01:49:57;;;;;;;11.20;8.80;;;;;;;;;;85588;211;3026836;-34
2023/12/07 01:52:39;;;;;;;10.70;8.90;;;;;;;;;;85604;211;3030211;-34
2023/12/07 01:55:26;;;;;;;11.10;8.90;;;;;;;;;;85590;211;3033330;-35
2023/12/07 01:58:08;;;;;;;12.00;8.80;;;;;;;;;;85511;211;3028476;-35
2023/12/07 02:00:49;;;;;;;11.10;8.90;;;;;;;;;;85572;211;3027154;-35
2023/12/07 02:03:32;;;;;;;10.40;8.40;;;;;;;;;;85583;211;3031051;-35
2023/12/07 02:06:16;;;;;;;10.90;8.80;;;;;;;;;;85598;211;3031908;-35
2023/12/07 02:08:57;;;;;;;11.80;9.20;;;;;;;;;;85525;211;3028555;-35
2023/12/07 02:11:37;;;;;;;11.30;8.80;;;;;;;;;;85533;211;3027198;-35
2023/12/07 02:14:17;;;;;;;10.80;8.60;;;;;;;;;;85557;211;3030311;-35
2023/12/07 02:17:06;;;;;;;11.60;8.70;;;;;;;;;;85536;211;3031012;-36
2023/12/07 02:19:56;;;;;;;11.40;8.50;;;;;;;;;;85579;211;3034024;-36
2023/12/07 02:22:43;;;;;;;11.10;8.80;;;;;;;;;;85584;211;3027071;-36
2023/12/07 02:25:25;;;;;;;;;;;;;;;;;;85574;211;3033196;-36
2023/12/07 02:28:08;;;;;;;11.30;7.90;;;;;;;;;;85547;211;3031619;-36
2023/12/07 02:30:50;;;;;;;10.90;8.30;;;;;;;;;;85581;211;3028456;-36
2023/12/07 02:33:33;;;;;;;11.50;8.80;;;;;;;;;;85168;211;3027051;-35
2023/12/07 02:36:13;;;;;;;10.30;8.30;;;;;;;;;;85560;211;3027553;-36
2023/12/07 02:38:55;;;;;;;10.80;8.20;;;;;;;;;;85488;211;3030721;-36
2023/12/07 02:41:40;;;;;;;11.10;8.70;;;;;;;;;;85599;211;3031063;-35
2023/12/07 02:44:25;;;;;;;11.10;8.60;;;;;;;;;;85565;211;3028421;-35
2023/12/07 02:47:12;;;;;;;10.40;8.20;;;;;;;;;;85538;211;3027173;-35
2023/12/07 02:49:55;;;;;;;10.90;8.30;;;;;;;;;;85504;211;3030620;-35
2023/12/07 02:52:36;;;;;;;11.00;8.10;;;;;;;;;;85597;211;3031896;-35
2023/12/07 02:55:17;;;;;;;10.00;7.80;;;;;;;;;;85574;211;3028203;-35
2023/12/07 02:57:59;;;;;;;10.50;8.20;;;;;;;;;;85612;211;3027294;-35
2023/12/07 03:00:41;;;;;;;11.10;8.70;;;;;;;;;;85542;211;3036618;-35
2023/12/07 03:03:19;;;;;;;10.20;8.20;;;;;;;;;;85529;211;3030957;-35
2023/12/07 03:05:59;;;;;;;11.20;8.40;;;;;;;;;;85567;211;3028010;-35
2023/12/07 03:08:38;;;;;;;10.60;8.00;;;;;;;;;;85462;211;3027438;-34
2023/12/07 03:11:19;;;;;;;10.40;8.10;;;;;;;;;;85449;212;3030828;-35
2023/12/07 03:14:04;;;;;;;11.10;8.30;;;;;;;;;;85483;212;3031697;-34
2023/12/07 03:16:41;;;;;;;10.90;8.30;;;;;;;;;;85459;212;3029059;-34
2023/12/07 03:19:25;;;;;;;9.70;7.60;;;;;;;;;;85451;211;3026937;-35
2023/12/07 03:22:06;;;;;;;11.00;8.30;;;;;;;;;;85561;211;3031020;-35
2023/12/07 03:24:46;;;;;;;10.30;8.00;;;;;;;;;;85582;211;3031498;-35
2023/12/07 03:27:25;;;;;;;9.70;8.20;;;;;;;;;;85582;211;3028398;-35
2023/12/07 03:30:06;;;;;;;10.40;8.00;;;;;;;;;;85608;211;3028835;-34
2023/12/07 03:32:47;;;;;;;10.00;7.70;;;;;;;;;;85614;211;3030451;-35
2023/12/07 03:35:28;;;;;;;10.80;8.30;;;;;;;;;;85651;211;3032128;-34
2023/12/07 03:38:09;;;;;;;;;;;;;;;;;;85282;211;3028334;-34
2023/12/07 03:40:57;;;;;;;9.80;7.40;;;;;;;;;;85551;211;3029924;-35
2023/12/07 03:43:41;;;;;;;10.10;7.40;;;;;;;;;;85598;211;3031093;-35
2023/12/07 03:46:19;;;;;;;;;;;;;;;;;;85608;211;3031406;-35
2023/12/07 03:49:01;;;;;;;10.50;7.80;;;;;;;;;;85554;211;3027997;-35
2023/12/07 03:51:38;;;;;;;11.00;7.80;;;;;;;;;;85658;211;3032524;-34
2023/12/07 03:54:19;;;;;;;10.70;8.20;;;;;;;;;;85539;211;3030252;-34
2023/12/07 03:56:57;;;;;;;10.80;8.20;;;;;;;;;;85571;211;3030876;-35
2023/12/07 03:59:39;;;;;;;10.20;7.70;;;;;;;;;;85496;211;3028344;-36
2023/12/07 04:02:23;;;;;;;;;;;;;;;;;;85539;211;3034479;-36
2023/12/07 04:05:12;;;;;;;10.10;7.70;;;;;;;;;;85593;211;3030420;-36
2023/12/07 04:07:54;;;;;;;10.30;7.70;;;;;;;;;;85533;211;3032548;-36
2023/12/07 04:10:36;;;;;;;10.70;8.00;;;;;;;;;;85416;212;3028746;-36
2023/12/07 04:13:14;;;;;;;10.10;7.80;;;;;;;;;;85467;212;3028453;-36
2023/12/07 04:15:53;;;;;;;11.10;7.60;;;;;;;;;;85445;212;3030256;-36
2023/12/07 04:18:36;;;;;;;9.90;7.80;;;;;;;;;;85451;212;3031326;-36
2023/12/07 04:21:16;;;;;;;10.90;8.10;;;;;;;;;;85420;212;3030487;-36
2023/12/07 04:23:59;;;;;;;10.70;8.00;;;;;;;;;;85454;212;3027088;-36
2023/12/07 04:26:37;;;;;;;10.40;7.60;;;;;;;;;;85478;212;3030949;-36
2023/12/07 04:29:18;;;;;;;11.70;8.10;;;;;;;;;;85483;212;3031568;-36
2023/12/07 04:31:57;;;;;;;10.80;7.60;;;;;;;;;;85435;212;3027769;-36
2023/12/07 04:34:37;;;;;;;12.00;8.10;;;;;;;;;;85468;211;3027434;-34
2023/12/07 04:37:18;;;;;;;10.80;7.60;;;;;;;;;;85618;211;3030307;-34
2023/12/07 04:39:55;;;;;;;10.40;7.80;;;;;;;;;;85569;211;3031353;-34
2023/12/07 04:42:39;;;;;;;10.90;7.70;;;;;;;;;;85555;211;3028410;-34
2023/12/07 04:45:17;;;;;;;11.10;7.70;;;;;;;;;;85550;211;3027789;-35
2023/12/07 04:47:57;;;;;;;10.90;7.80;;;;;;;;;;85613;211;3031060;-36
2023/12/07 04:50:35;;;;;;;11.30;7.70;;;;;;;;;;85583;211;3031736;-35
2023/12/07 04:53:19;;;;;;;11.40;8.10;;;;;;;;;;85608;211;3034791;-35
2023/12/07 04:56:02;;;;;;;10.40;7.50;;;;;;;;;;85556;211;3027170;-34
2023/12/07 04:58:44;;;;;;;11.30;7.80;;;;;;;;;;85549;211;3031172;-35
2023/12/07 05:01:23;;;;;;;10.60;7.40;;;;;;;;;;85527;211;3031805;-35
2023/12/07 05:04:07;;;;;;;10.80;7.70;;;;;;;;;;85571;211;3027740;-35
2023/12/07 05:06:45;;;;;;;10.10;7.50;;;;;;;;;;85584;211;3027281;-35
2023/12/07 05:09:30;;;;;;;10.10;7.40;;;;;;;;;;85514;211;3030467;-35
2023/12/07 05:12:11;;;;;;;10.30;7.90;;;;;;;;;;85424;212;3031353;-35
2023/12/07 05:14:51;;;;;;;10.00;7.00;;;;;;;;;;85469;212;3028646;-35
2023/12/07 05:17:30;;;;;;;9.10;7.20;;;;;;;;;;85482;212;3027482;-35
2023/12/07 05:20:13;;;;;;;9.60;7.10;;;;;;;;;;85508;211;3030681;-35
2023/12/07 05:22:51;;;;;;;10.70;8.00;;;;;;;;;;85520;211;3031676;-35
2023/12/07 05:25:38;;;;;;;10.30;7.40;;;;;;;;;;85551;211;3028629;-35
2023/12/07 05:28:20;;;;;;;10.70;7.60;;;;;;;;;;85550;211;3029668;-35
2023/12/07 05:31:02;;;;;;;10.60;7.60;;;;;;;;;;85573;211;3030464;-35
2023/12/07 05:33:43;;;;;;;10.20;7.80;;;;;;;;;;85517;211;3031976;-36
2023/12/07 05:36:26;;;;;;;10.00;7.40;;;;;;;;;;85586;211;3028409;-35
2023/12/07 05:39:07;;;;;;;9.80;7.60;;;;;;;;;;85570;211;3028074;-35
2023/12/07 05:41:48;;;;;;;10.50;7.30;;;;;;;;;;85551;211;3031255;-35
2023/12/07 05:44:29;;;;;;;9.80;7.60;;;;;;;;;;85610;211;3037709;-34
2023/12/07 05:47:08;;;;;;;9.60;7.20;;;;;;;;;;85572;211;3028280;-35
2023/12/07 05:49:50;;;;;;;10.30;7.30;;;;;;;;;;85596;211;3027166;-35
2023/12/07 05:52:30;;;;;;;10.10;7.40;;;;;;;;;;85597;211;3031284;-35
2023/12/07 05:55:10;;;;;;;10.10;7.00;;;;;;;;;;85574;211;3031390;-35
2023/12/07 05:57:52;;;;;;;10.60;7.60;;;;;;;;;;85595;211;3028628;-35
2023/12/07 06:00:30;;;;;;;10.00;7.00;;;;;;;;;;85584;211;3027424;-35
2023/12/07 06:03:09;;;;;;;9.10;7.10;;;;;;;;;;85549;211;3030796;-35
2023/12/07 06:05:49;;;;;;;9.40;6.70;;;;;;;;;;85697;211;3031505;-35
2023/12/07 06:08:28;;;;;;;10.00;7.30;;;;;;;;;;85540;211;3028444;-36
2023/12/07 06:11:08;;;;;;;9.90;7.10;;;;;;;;;;85493;212;3027360;-35
2023/12/07 06:13:45;;;;;;;11.20;7.40;;;;;;;;;;85429;212;3030687;-36
2023/12/07 06:16:26;;;;;;;10.60;7.20;;;;;;;;;;85503;212;3031404;-35
2023/12/07 06:19:10;;;;;;;9.60;6.90;;;;;;;;;;85541;211;3028515;-36
2023/12/07 06:21:47;;;;;;;10.90;7.20;;;;;;;;;;85657;211;3027237;-36
2023/12/07 06:24:24;;;;;;;9.70;6.90;;;;;;;;;;85535;211;3030910;-36
2023/12/07 06:27:06;;;;;;;10.60;7.20;;;;;;;;;;85610;211;3031182;-36
2023/12/07 06:29:43;;;;;;;10.00;7.30;;;;;;;;;;85636;211;3028751;-36
2023/12/07 06:32:23;;;;;;;9.00;6.70;;;;;;;;;;85572;211;3027082;-35
2023/12/07 06:35:01;;;;;;;10.10;7.40;;;;;;;;;;85570;211;3030369;-36
2023/12/07 06:37:41;;;;;;;10.10;6.70;;;;;;;;;;85552;211;3031843;-36
2023/12/07 06:40:21;;;;;;;10.50;7.20;;;;;;;;;;85564;211;3028576;-36
2023/12/07 06:43:01;;;;;;;9.20;7.10;;;;;;;;;;85583;211;3027925;-36
2023/12/07 06:45:42;;;;;;;9.50;7.00;;;;;;;;;;85519;211;3036391;-36
2023/12/07 06:48:19;;;;;;;9.40;6.70;;;;;;;;;;85591;211;3031735;-36
2023/12/07 06:50:57;;;;;;;9.40;6.70;;;;;;;;;;85621;211;3028593;-36
2023/12/07 06:53:35;;;;;;;8.90;6.60;;;;;;;;;;85606;211;3027106;-36
2023/12/07 06:56:12;;;;;;;9.40;7.00;;;;;;;;;;85588;211;3036516;-36
2023/12/07 06:58:53;;;;;;;9.20;7.10;;;;;;;;;;85623;211;3031526;-36
2023/12/07 07:01:33;;;;;;;9.40;7.20;;;;;;;;;;85618;211;3028122;-36
2023/12/07 07:04:16;;;;;;;9.00;6.90;;;;;;;;;;85570;211;3028553;-36
2023/12/07 07:06:57;;;;;;;8.30;6.20;;;;;;;;;;85566;211;3030747;-36
2023/12/07 07:09:39;;;;;;;;;;;;;;;;;;85506;211;3031280;-36
2023/12/07 07:12:20;;;;;;;9.30;6.30;;;;;;;;;;85465;212;3029215;-36
2023/12/07 07:15:02;;;;;;;9.10;6.50;;;;;;;;;;85490;212;3027721;-36
2023/12/07 07:17:45;;;;;;;8.70;6.50;;;;;;;;;;85458;212;3030721;-36
2023/12/07 07:20:29;;;;;;;9.20;6.80;;;;;;;;;;85568;211;3031184;-36
2023/12/07 07:23:11;;;;;;;9.70;6.80;;;;;;;;;;85556;211;3028266;-36
2023/12/07 07:25:51;;;;;;;9.80;6.90;;;;;;;;;;85565;211;3026887;-36
2023/12/07 07:28:28;;;;;;;9.30;7.10;;;;;;;;;;85567;211;3030731;-36
2023/12/07 07:31:07;;;;;;;10.00;6.80;;;;;;;;;;85573;211;3031821;-36
2023/12/07 07:33:48;;;;;;;11.00;7.10;;;;;;;;;;85563;211;3028535;-35
2023/12/07 07:36:39;;;;;;;10.00;7.40;;;;;;;;;;85519;211;3027787;-36
2023/12/07 07:39:20;;;;;;;10.30;7.60;;;;;;;;;;85570;211;3031693;-36
2023/12/07 07:42:17;;;;;;;9.40;6.70;;;;;;;;;;85556;209;3031124;-40
2023/12/07 07:44:56;;;;;;;9.30;7.00;;;;;;;;;;85564;210;3028698;-43
2023/12/07 07:47:38;;;;;;;9.50;7.10;;;;;;;;;;85697;210;3027095;-43
2023/12/07 07:50:17;;;;;;;9.20;6.10;;;;;;;;;;85597;210;3030550;-38
2023/12/07 07:52:57;;;;;;;9.30;6.80;;;;;;;;;;85640;210;3034197;-40
2023/12/07 07:55:43;;;;;;;9.70;7.10;;;;;;;;;;85599;210;3027668;-38
2023/12/07 07:58:21;;;;;;;9.80;7.30;;;;;;;;;;85626;210;3026978;-39
2023/12/07 08:01:03;;;;;;;9.10;6.70;;;;;;;;;;85624;210;3030901;-41
2023/12/07 08:03:45;;;;;;;9.80;7.00;;;;;;;;;;85629;210;3031163;-43
2023/12/07 08:06:26;;;;;;;8.90;6.70;;;;;;;;;;85556;210;3027849;-43
2023/12/07 08:09:08;;;;;;;9.00;6.70;;;;;;;;;;85665;210;3027356;-39
2023/12/07 08:11:49;;;;;;;9.30;7.10;;;;;;;;;;85662;210;3030138;-40
2023/12/07 08:14:28;;;;;;;10.70;7.30;;;;;;;;;;85674;210;3031893;-43
2023/12/07 08:17:08;;;;;;;10.00;7.20;;;;;;;;;;85638;210;3029399;-40
2023/12/07 08:19:45;;;;;;;10.10;7.20;;;;;;;;;;85703;210;3026941;-38
2023/12/07 08:22:27;;;;;;;10.20;7.20;;;;;;;;;;85720;210;3031127;-40
2023/12/07 08:25:06;;;;;;;9.00;6.70;;;;;;;;;;85702;210;3031950;-39
2023/12/07 08:27:52;;;;;;;9.40;7.20;;;;;;;;;;85637;210;3027738;-43
2023/12/07 08:30:34;;;;;;;10.50;7.20;;;;;;;;;;85688;209;3027463;-48
2023/12/07 08:33:19;;;;;;;9.70;7.20;;;;;;;;;;85722;209;3031309;-40
2023/12/07 08:35:59;;;;;;;10.40;7.10;;;;;;;;;;85675;210;3031267;-40
2023/12/07 08:38:39;;;;;;;9.40;7.50;;;;;;;;;;85703;210;3028664;-41
2023/12/07 08:41:18;;;;;;;10.10;7.20;;;;;;;;;;85723;210;3027142;-42
2023/12/07 08:43:55;;;;;;;9.30;7.00;;;;;;;;;;85663;210;3031099;-38
2023/12/07 08:46:38;;;;;;;8.70;7.20;;;;;;;;;;85658;210;3031036;-40
2023/12/07 08:49:17;;;;;;;11.20;7.50;;;;;;;;;;85732;210;3027752;-41
2023/12/07 08:52:04;;;;;;;9.60;7.20;;;;;;;;;;85696;210;3027034;-46
2023/12/07 08:55:07;;;;;;;10.20;7.10;;;;;;;;;;85692;210;3030506;-44
2023/12/07 08:57:48;;;;;;;9.80;7.30;;;;;;;;;;85639;210;3031313;-38
2023/12/07 09:00:30;;;;;;;8.90;7.20;;;;;;;;;;85638;210;3028175;-35
2023/12/07 09:03:08;;;;;;;9.70;7.70;;;;;;;;;;85713;210;3027053;-50
2023/12/07 09:05:47;;;;;;;9.20;7.60;;;;;;;;;;85681;210;3031086;-37
2023/12/07 09:08:26;;;;;;;9.80;7.70;;;;;;;;;;85624;210;3031610;-47
2023/12/07 09:11:09;;;;;;;9.80;7.60;;;;;;;;;;85689;210;3028431;-45
2023/12/07 09:13:50;;;;;;;9.30;7.60;;;;;;;;;;85624;210;3027090;-49
2023/12/07 09:16:31;;;;;;;9.80;7.40;;;;;;;;;;85640;210;3031536;-38
2023/12/07 09:19:13;;;;;;;9.20;7.50;;;;;;;;;;85622;210;3038287;-45
2023/12/07 09:21:55;;;;;;;9.80;7.80;;;;;;;;;;85653;210;3029215;-45
2023/12/07 09:24:37;;;;;;;9.50;7.40;;;;;;;;;;85683;210;3027245;-47
2023/12/07 09:27:19;;;;;;;9.70;7.30;;;;;;;;;;85634;210;3030390;-47
2023/12/07 09:30:03;;;;;;;10.00;7.40;;;;;;;;;;85681;210;3031724;-48
2023/12/07 09:32:40;;;;;;;9.60;7.40;;;;;;;;;;85659;210;3027944;-43
2023/12/07 09:35:24;;;;;;;9.10;7.10;;;;;;;;;;85722;210;3027501;-50
2023/12/07 09:38:09;;;;;;;9.60;7.20;;;;;;;;;;85631;210;3030939;-46
2023/12/07 09:40:55;;;;;;;9.20;7.30;;;;;;;;;;85698;210;3032219;-36
2023/12/07 09:43:34;;;;;;;8.90;7.20;;;;;;;;;;85644;211;3028102;-36
2023/12/07 09:46:23;;;;;;;9.50;7.80;;;;;;;;;;85630;211;3027039;-36
2023/12/07 09:49:03;;;;;;;9.60;7.50;;;;;;;;;;85625;211;3030972;-37
2023/12/07 09:51:41;;;;;;;9.70;7.70;;;;;;;;;;85628;211;3032667;-42
2023/12/07 09:54:19;;;;;;;9.30;7.50;;;;;;;;;;85660;211;3029143;-38
2023/12/07 09:56:57;;;;;;;9.20;7.90;;;;;;;;;;85603;211;3027608;-38
2023/12/07 09:59:34;;;;;;;9.60;7.50;;;;;;;;;;85615;211;3031790;-38
2023/12/07 10:02:10;;;;;;;9.30;7.30;;;;;;;;;;85645;211;3031432;-37
2023/12/07 10:04:49;;;;;;;9.20;7.50;;;;;;;;;;85674;211;3028516;-37
2023/12/07 10:07:39;;;;;;;9.40;7.50;;;;;;;;;;85648;211;3027134;-39
2023/12/07 10:10:16;;;;;;;9.20;7.40;;;;;;;;;;85655;211;3037697;-38
2023/12/07 10:12:57;;;;;;;9.40;7.80;;;;;;;;;;85571;211;3031302;-38
2023/12/07 10:15:34;;;;;;;8.70;7.20;;;;;;;;;;85534;211;3028531;-38
2023/12/07 10:18:10;;;;;;;8.90;7.50;;;;;;;;;;85581;211;3027886;-37
2023/12/07 10:20:51;;;;;;;10.00;8.30;;;;;;;;;;85644;211;3036473;-36
2023/12/07 10:23:27;;;;;;;9.30;7.30;;;;;;;;;;85651;211;3031974;-38
2023/12/07 10:26:07;;;;;;;9.20;7.50;;;;;;;;;;85673;211;3028498;-37
2023/12/07 10:28:46;;;;;;;9.00;7.80;;;;;;;;;;85608;211;3027041;-38
2023/12/07 10:31:23;;;;;;;8.70;7.20;;;;;;;;;;85673;211;3031684;-37
2023/12/07 10:34:04;;;;;;;9.40;7.60;;;;;;;;;;85244;211;3031598;-37
2023/12/07 10:36:41;;;;;;;8.60;7.20;;;;;;;;;;85699;211;3029116;-38
2023/12/07 10:39:26;;;;;;;9.50;8.30;;;;;;;;;;85584;211;3027790;-37
2023/12/07 10:42:14;;;;;;;9.00;7.40;;;;;;;;;;85661;210;3030615;-37
2023/12/07 10:44:57;;;;;;;9.60;7.60;;;;;;;;;;85687;210;3031770;-37
2023/12/07 10:47:36;;;;;;;9.50;7.80;;;;;;;;;;85653;210;3028715;-37
2023/12/07 10:50:17;;;;;;;9.50;7.60;;;;;;;;;;85592;210;3029093;-37
2023/12/07 10:52:57;;;;;;;9.10;7.50;;;;;;;;;;85577;211;3031584;-37
2023/12/07 10:55:40;;;;;;;9.10;7.70;;;;;;;;;;85556;211;3031661;-37
2023/12/07 10:58:19;;;;;;;8.80;7.30;;;;;;;;;;85630;210;3028657;-37
2023/12/07 11:00:59;;;;;;;9.60;7.90;;;;;;;;;;85597;210;3026766;-42
2023/12/07 11:03:42;;;;;;;9.60;8.20;;;;;;;;;;85598;210;3030522;-36
2023/12/07 11:06:20;;;;;;;9.40;8.10;;;;;;;;;;85603;210;3031529;-36
2023/12/07 11:09:04;;;;;;;9.70;8.30;;;;;;;;;;85586;210;3028978;-38
2023/12/07 11:11:52;;;;;;;9.60;8.20;;;;;;;;;;85679;211;3033297;-40
2023/12/07 11:14:30;;;;;;;9.20;7.80;;;;;;;;;;85565;210;3031150;-41
2023/12/07 11:17:10;;;;;;;9.20;7.40;;;;;;;;;;85573;210;3030994;-40
2023/12/07 11:19:57;;;;;;;9.10;7.60;;;;;;;;;;85531;210;3028803;-39
2023/12/07 11:22:35;;;;;;;9.40;7.70;;;;;;;;;;85604;211;3027921;-41
2023/12/07 11:25:13;;;;;;;10.10;7.70;;;;;;;;;;85591;211;3030586;-37
2023/12/07 11:28:03;;;;;;;9.60;7.90;;;;;;;;;;85637;211;3031080;-37
2023/12/07 11:30:45;;;;;;;10.00;8.50;;;;;;;;;;85580;211;3027950;-38
2023/12/07 11:33:23;;;;;;;10.10;8.20;;;;;;;;;;85628;211;3027502;-37
2023/12/07 11:36:17;;;;;;;10.20;8.40;;;;;;;;;;85630;211;3030326;-37
2023/12/07 11:39:26;;;;;;;9.40;8.00;;;;;;;;;;85484;211;3031187;-35
2023/12/07 11:42:16;;;;;;;10.30;8.50;;;;;;;;;;85605;211;3028777;-35
2023/12/07 11:44:57;;;;;;;10.70;8.50;;;;;;;;;;85616;211;3027073;-35
2023/12/07 11:47:41;;;;;;;10.70;8.50;;;;;;;;;;85631;211;3032108;-34
2023/12/07 11:50:22;;;;;;;9.70;8.10;;;;;;;;;;85522;210;3031186;-38
2023/12/07 11:53:08;;;;;;;9.40;8.00;;;;;;;;;;85643;211;3028571;-36
2023/12/07 11:55:47;;;;;;;9.90;8.30;;;;;;;;;;85607;211;3027759;-37
2023/12/07 11:58:32;;;;;;;9.30;8.10;;;;;;;;;;85616;210;3030517;-35
2023/12/07 12:01:20;;;;;;;9.60;8.50;;;;;;;;;;85578;210;3032661;-36
2023/12/07 12:04:05;;;;;;;10.50;8.70;;;;;;;;;;85565;210;3028385;-38
2023/12/07 12:06:50;;;;;;;9.80;8.20;;;;;;;;;;85611;211;3028107;-38
2023/12/07 12:09:29;;;;;;;10.20;8.20;;;;;;;;;;85585;210;3033149;-37
2023/12/07 12:12:10;;;;;;;10.00;8.70;;;;;;;;;;85546;210;3031942;-42
2023/12/07 12:14:50;;;;;;;10.40;8.90;;;;;;;;;;85591;211;3028727;-40
2023/12/07 12:17:36;;;;;;;10.70;8.30;;;;;;;;;;85571;211;3027023;-36
2023/12/07 12:20:17;;;;;;;9.70;8.50;;;;;;;;;;85577;210;3030441;-37
2023/12/07 12:22:54;;;;;;;10.70;8.70;;;;;;;;;;85509;210;3031832;-43
2023/12/07 12:25:37;;;;;;;10.90;8.60;;;;;;;;;;85580;210;3028120;-40
2023/12/07 12:28:21;;;;;;;11.10;8.80;;;;;;;;;;85607;210;3028170;-39
2023/12/07 12:31:03;;;;;;;10.20;8.40;;;;;;;;;;85631;210;3030580;-38
2023/12/07 12:33:46;;;;;;;9.90;8.50;;;;;;;;;;85565;210;3037156;-37
2023/12/07 12:36:27;;;;;;;10.10;8.60;;;;;;;;;;85613;210;3027731;-38
2023/12/07 12:39:08;;;;;;;9.80;8.60;;;;;;;;;;85562;210;3027631;-39
2023/12/07 12:42:02;;;;;;;10.60;8.80;;;;;;;;;;85572;210;3030906;-37
2023/12/07 12:44:42;;;;;;;9.80;8.70;;;;;;;;;;85642;210;3031738;-39
2023/12/07 12:47:20;;;;;;;9.90;8.60;;;;;;;;;;85674;210;3028418;-38
2023/12/07 12:49:57;;;;;;;9.70;8.60;;;;;;;;;;85720;210;3027119;-37
2023/12/07 12:52:36;;;;;;;9.90;8.30;;;;;;;;;;85476;211;3031127;-37
2023/12/07 12:55:15;;;;;;;10.00;8.00;;;;;;;;;;85622;211;3031803;-35
2023/12/07 12:57:56;;;;;;;9.80;8.70;;;;;;;;;;85575;210;3028456;-36
2023/12/07 13:00:34;;;;;;;9.40;8.30;;;;;;;;;;85586;210;3027181;-36
2023/12/07 13:03:20;;;;;;;9.90;8.70;;;;;;;;;;85612;211;3030922;-37
2023/12/07 13:06:00;;;;;;;9.60;8.60;;;;;;;;;;85609;211;3031502;-37
2023/12/07 13:08:40;;;;;;;9.80;8.50;;;;;;;;;;85555;210;3027834;-37
2023/12/07 13:11:22;;;;;;;10.00;8.40;;;;;;;;;;85596;211;3028432;-36
2023/12/07 13:14:06;;;;;;;9.20;8.10;;;;;;;;;;85535;211;3030813;-36
2023/12/07 13:16:48;;;;;;;9.70;8.20;;;;;;;;;;85561;211;3031588;-36
2023/12/07 13:19:25;;;;;;;9.00;7.90;;;;;;;;;;85624;211;3028932;-39
2023/12/07 13:22:07;;;;;;;10.00;7.90;;;;;;;;;;85653;211;3027611;-36
2023/12/07 13:24:46;;;;;;;10.30;8.60;;;;;;;;;;85703;211;3036182;-36
2023/12/07 13:27:25;;;;;;;9.50;8.30;;;;;;;;;;85632;211;3031990;-39
2023/12/07 13:30:05;;;;;;;9.30;7.90;;;;;;;;;;85678;211;3029066;-37
2023/12/07 13:32:42;;;;;;;9.00;8.00;;;;;;;;;;85449;211;3027066;-39
2023/12/07 13:35:20;;;;;;;9.50;8.20;;;;;;;;;;85676;211;3039839;-36
2023/12/07 13:37:56;;;;;;;9.40;8.20;;;;;;;;;;85649;211;3032563;-37
2023/12/07 13:40:37;;;;;;;8.80;7.90;;;;;;;;;;85579;211;3027974;-37
2023/12/07 13:43:14;;;;;;;9.10;8.00;;;;;;;;;;85667;211;3027218;-37
2023/12/07 13:45:54;;;;;;;9.70;8.20;;;;;;;;;;85621;211;3031171;-37
2023/12/07 13:48:33;;;;;;;9.30;8.10;;;;;;;;;;85603;211;3032000;-37
2023/12/07 13:51:16;;;;;;;9.10;7.70;;;;;;;;;;85614;211;3028108;-37
2023/12/07 13:53:58;;;;;;;9.00;7.70;;;;;;;;;;85588;211;3028483;-42
2023/12/07 13:56:40;;;;;;;9.20;8.20;;;;;;;;;;85636;211;3030991;-41
2023/12/07 13:59:18;;;;;;;9.10;7.80;;;;;;;;;;85637;211;3031295;-40
2023/12/07 14:02:00;;;;;;;9.40;7.80;;;;;;;;;;85651;211;3028167;-42
2023/12/07 14:04:37;;;;;;;9.00;7.90;;;;;;;;;;85484;211;3027524;-41
2023/12/07 14:07:23;;;;;;;9.50;8.20;;;;;;;;;;85636;211;3030765;-42
2023/12/07 14:10:00;;;;;;;9.60;7.90;;;;;;;;;;85624;211;3032587;-41
2023/12/07 14:12:38;;;;;;;9.10;8.00;;;;;;;;;;85632;211;3028413;-41
2023/12/07 14:15:16;;;;;;;9.30;7.90;;;;;;;;;;85562;211;3027304;-41
2023/12/07 14:18:08;;;;;;;9.30;8.00;;;;;;;;;;85450;211;3030350;-41
2023/12/07 14:20:48;;;;;;;9.50;8.20;;;;;;;;;;85598;211;3031196;-43
2023/12/07 14:23:47;;;;;;;9.80;7.90;;;;;;;;;;85592;211;3027960;-41
2023/12/07 14:26:55;;;;;;;9.20;7.80;;;;;;;;;;85596;211;3033425;-41
2023/12/07 14:29:33;;;;;;;9.50;7.90;;;;;;;;;;85605;211;3030748;-43
2023/12/07 14:32:18;;;;;;;9.10;7.90;;;;;;;;;;85633;211;3031475;-42
2023/12/07 14:35:01;;;;;;;9.00;7.80;;;;;;;;;;85547;211;3029357;-41
2023/12/07 14:37:44;;;;;;;8.70;7.70;;;;;;;;;;85581;211;3026853;-41
2023/12/07 14:40:25;;;;;;;9.00;7.80;;;;;;;;;;85582;211;3030336;-37
2023/12/07 14:43:11;;;;;;;9.30;7.70;;;;;;;;;;85607;211;3031144;-37
2023/12/07 14:45:50;;;;;;;9.00;7.80;;;;;;;;;;85566;211;3028414;-37
2023/12/07 14:48:30;;;;;;;9.20;8.00;;;;;;;;;;85610;210;3027826;-37
2023/12/07 14:51:12;;;;;;;9.50;8.30;;;;;;;;;;85462;211;3030002;-37
2023/12/07 14:53:52;;;;;;;9.10;8.10;;;;;;;;;;85625;211;3031293;-37
2023/12/07 14:56:38;;;;;;;9.50;8.10;;;;;;;;;;85539;211;3028177;-37
2023/12/07 14:59:15;;;;;;;;;;;;;;;;;;85598;211;3027959;-37
2023/12/07 15:01:54;;;;;;;9.50;8.10;;;;;;;;;;85612;211;3029961;-37
2023/12/07 15:04:35;;;;;;;9.30;8.20;;;;;;;;;;85261;211;3032365;-37
2023/12/07 15:07:16;;;;;;;10.00;8.00;;;;;;;;;;85496;211;3028519;-37
2023/12/07 15:09:54;;;;;;;9.60;8.20;;;;;;;;;;85566;211;3026950;-37
2023/12/07 15:12:35;;;;;;;9.90;8.30;;;;;;;;;;85611;211;3031308;-37
2023/12/07 15:15:13;;;;;;;10.20;8.60;;;;;;;;;;85561;211;3031011;-37
2023/12/07 15:17:51;;;;;;;10.40;8.60;;;;;;;;;;85640;211;3034134;-37
2023/12/07 15:20:30;;;;;;;9.90;8.80;;;;;;;;;;85610;211;3026822;-37
2023/12/07 15:23:11;;;;;;;9.60;8.40;;;;;;;;;;85636;211;3030324;-37
2023/12/07 15:25:49;;;;;;;10.40;8.80;;;;;;;;;;85608;211;3031991;-37
2023/12/07 15:28:29;;;;;;;10.00;8.80;;;;;;;;;;85601;211;3028477;-37
2023/12/07 15:31:09;;;;;;;10.60;8.90;;;;;;;;;;85606;211;3027252;-37
2023/12/07 15:33:47;;;;;;;10.40;9.00;;;;;;;;;;85645;211;3031042;-36
2023/12/07 15:36:29;;;;;;;11.00;9.00;;;;;;;;;;85575;211;3031661;-40
2023/12/07 15:39:13;;;;;;;11.00;9.80;;;;;;;;;;85596;210;3029026;-40
2023/12/07 15:41:55;;;;;;;11.00;9.40;;;;;;;;;;85603;210;3027813;-41
2023/12/07 15:44:35;;;;;;;11.50;9.80;;;;;;;;;;85626;211;3030696;-39
2023/12/07 15:47:12;;;;;;;10.50;9.40;;;;;;;;;;85559;210;3032312;-39
2023/12/07 15:49:49;;;;;;;10.90;9.50;;;;;;;;;;85643;210;3029103;-37